createdAt,value
2022-08-10T00:00:16.825Z,21.20
2022-08-10T00:03:37.730Z,20.90
2022-08-10T00:06:39.755Z,24.30
2022-08-10T00:09:50.801Z,24.20
2022-08-10T00:12:55.190Z,23.50
2022-08-10T00:15:57.606Z,22.30
2022-08-10T00:18:59.888Z,21.40
2022-08-10T00:22:01.761Z,22.00
2022-08-10T00:25:04.279Z,22.00
2022-08-10T00:28:06.263Z,25.60
2022-08-10T00:31:08.035Z,22.80
2022-08-10T00:34:09.893Z,21.00
2022-08-10T00:37:13.110Z,21.90
2022-08-10T00:40:15.042Z,25.80
2022-08-10T00:43:23.326Z,24.00
2022-08-10T00:46:26.363Z,20.50
2022-08-10T00:49:28.442Z,23.80
2022-08-10T00:52:30.578Z,21.90
2022-08-10T00:55:32.975Z,26.10
2022-08-10T00:58:54.681Z,27.00
2022-08-10T01:02:09.473Z,21.80
2022-08-10T01:05:14.615Z,21.30
2022-08-10T01:08:26.557Z,21.10
2022-08-10T01:12:38.476Z,24.70
2022-08-10T01:15:22.872Z,22.60
2022-08-10T01:18:37.682Z,23.60
2022-08-10T01:21:59.825Z,22.40
2022-08-10T01:25:24.805Z,25.50
2022-08-10T01:28:38.670Z,27.00
2022-08-10T01:31:46.137Z,24.30
2022-08-10T01:35:07.136Z,26.80
2022-08-10T01:38:36.702Z,26.00
2022-08-10T01:41:46.345Z,26.80
2022-08-10T01:45:02.266Z,22.60
2022-08-10T01:48:24.551Z,23.90
2022-08-10T01:51:35.586Z,23.40
2022-08-10T01:54:39.415Z,21.70
2022-08-10T01:57:42.481Z,24.40
2022-08-10T02:00:45.814Z,20.60
2022-08-10T02:04:04.007Z,19.80
2022-08-10T02:07:11.554Z,22.50
2022-08-10T02:10:15.318Z,18.60
2022-08-10T02:13:19.063Z,18.30
2022-08-10T02:16:21.822Z,21.50
2022-08-10T02:19:25.323Z,19.10
2022-08-10T02:22:38.037Z,20.50
2022-08-10T02:25:48.540Z,19.30
2022-08-10T02:28:52.175Z,22.30
2022-08-10T02:31:55.599Z,23.70
2022-08-10T02:34:59.472Z,24.10
2022-08-10T02:38:05.215Z,20.50
2022-08-10T02:45:00.994Z,22.50
2022-08-10T02:45:21.241Z,20.30
2022-08-10T02:48:32.743Z,22.60
2022-08-10T02:52:07.476Z,22.40
2022-08-10T02:55:19.748Z,21.50
2022-08-10T02:58:33.479Z,87.90
2022-08-10T03:01:40.889Z,126.70
2022-08-10T03:04:55.034Z,19.30
2022-08-10T03:08:06.614Z,20.80
2022-08-10T03:11:10.737Z,17.80
2022-08-10T03:14:14.364Z,18.60
2022-08-10T03:17:17.338Z,20.10
2022-08-10T03:20:35.902Z,20.40
2022-08-10T03:23:42.081Z,19.60
2022-08-10T03:26:44.282Z,21.00
2022-08-10T03:30:31.780Z,20.00
2022-08-10T03:33:08.950Z,21.40
2022-08-10T03:36:40.242Z,19.40
2022-08-10T03:39:32.885Z,20.20
2022-08-10T03:42:39.589Z,20.40
2022-08-10T03:45:49.420Z,19.80
2022-08-10T03:49:02.017Z,20.20
2022-08-10T03:52:06.415Z,23.40
2022-08-10T03:55:08.704Z,23.20
2022-08-10T03:58:11.195Z,23.20
2022-08-10T04:01:14.989Z,22.60
2022-08-10T04:04:22.877Z,25.80
2022-08-10T04:07:26.737Z,25.10
2022-08-10T04:10:29.439Z,23.80
2022-08-10T04:13:31.349Z,24.90
2022-08-10T04:16:33.065Z,23.30
2022-08-10T04:19:41.239Z,23.00
2022-08-10T04:22:44.971Z,26.30
2022-08-10T04:25:46.787Z,26.10
2022-08-10T04:28:49.322Z,23.90
2022-08-10T04:31:52.868Z,24.20
2022-08-10T04:34:55.904Z,24.30
2022-08-10T04:37:58.552Z,22.50
2022-08-10T04:41:01.473Z,26.20
2022-08-10T04:44:03.680Z,23.90
2022-08-10T04:47:05.749Z,23.60
2022-08-10T04:50:10.024Z,23.80
2022-08-10T04:53:11.822Z,26.20
2022-08-10T04:56:14.204Z,24.50
2022-08-10T04:59:16.254Z,24.20
2022-08-10T05:02:29.663Z,24.90
2022-08-10T05:05:39.786Z,26.40
2022-08-10T05:08:41.530Z,20.80
2022-08-10T05:11:44.248Z,21.00
2022-08-10T05:14:46.196Z,24.60
2022-08-10T05:18:06.077Z,21.20
2022-08-10T05:21:10.182Z,26.90
2022-08-10T05:24:11.824Z,22.40
2022-08-10T05:27:13.576Z,20.20
2022-08-10T05:30:21.274Z,22.30
2022-08-10T05:33:22.951Z,23.10
2022-08-10T05:36:24.921Z,21.60
2022-08-10T05:39:31.789Z,23.50
2022-08-10T05:42:34.750Z,21.80
2022-08-10T05:46:19.074Z,19.90
2022-08-10T05:49:01.560Z,21.60
2022-08-10T05:52:04.184Z,22.10
2022-08-10T05:55:06.694Z,20.60
2022-08-10T05:58:09.357Z,17.80
2022-08-10T06:01:13.855Z,21.10
2022-08-10T06:04:20.541Z,17.50
2022-08-10T06:07:27.320Z,19.20
2022-08-10T06:10:32.537Z,19.70
2022-08-10T06:14:12.646Z,17.90
2022-08-10T06:17:17.191Z,25.10
2022-08-10T06:20:19.024Z,25.10
2022-08-10T06:23:21.172Z,18.20
2022-08-10T06:26:22.970Z,19.00
2022-08-10T06:29:25.599Z,21.60
2022-08-10T06:32:28.702Z,20.80
2022-08-10T06:35:32.605Z,19.60
2022-08-10T06:38:35.390Z,23.50
2022-08-10T06:42:14.994Z,20.00
2022-08-10T06:45:12.171Z,17.50
2022-08-10T06:48:25.309Z,18.40
2022-08-10T06:51:30.986Z,19.70
2022-08-10T06:54:33.482Z,20.90
2022-08-10T06:57:38.103Z,20.60
2022-08-10T07:00:41.750Z,17.50
2022-08-10T07:03:47.613Z,18.60
2022-08-10T07:06:49.529Z,18.80
2022-08-10T07:09:52.125Z,19.80
2022-08-10T07:12:58.311Z,19.50
2022-08-10T07:16:00.808Z,19.30
2022-08-10T07:19:03.176Z,21.60
2022-08-10T07:22:05.917Z,15.40
2022-08-10T07:25:09.557Z,17.60
2022-08-10T07:28:11.831Z,17.60
2022-08-10T07:31:56.616Z,16.70
2022-08-10T07:34:41.226Z,17.10
2022-08-10T07:37:47.058Z,16.90
2022-08-10T07:40:50.395Z,16.10
2022-08-10T07:43:53.138Z,18.30
2022-08-10T07:46:57.383Z,20.20
2022-08-10T07:50:03.089Z,19.50
2022-08-10T07:53:09.051Z,14.90
2022-08-10T07:56:26.287Z,17.40
2022-08-10T07:59:42.438Z,17.50
2022-08-10T08:02:58.260Z,13.00
2022-08-10T08:06:02.948Z,15.40
2022-08-10T08:09:05.780Z,15.20
2022-08-10T08:12:08.396Z,16.60
2022-08-10T08:16:17.580Z,18.40
2022-08-10T08:18:37.119Z,15.60
2022-08-10T08:24:04.647Z,13.00
2022-08-10T08:25:07.191Z,18.30
2022-08-10T08:31:14.955Z,9.90
2022-08-10T08:34:17.456Z,11.80
2022-08-10T08:38:31.390Z,14.60
2022-08-10T08:40:45.194Z,12.60
2022-08-10T08:43:54.466Z,11.60
2022-08-10T08:47:02.857Z,9.70
2022-08-10T08:50:47.230Z,12.10
2022-08-10T08:54:21.634Z,11.20
2022-08-10T08:57:49.672Z,9.20
2022-08-10T09:01:03.982Z,10.80
2022-08-10T09:04:38.064Z,11.30
2022-08-10T09:08:04.786Z,9.10
2022-08-10T09:11:17.184Z,10.40
2022-08-10T09:14:36.005Z,12.50
2022-08-10T09:18:05.810Z,11.50
2022-08-10T09:21:18.002Z,12.00
2022-08-10T09:24:28.818Z,10.00
2022-08-10T09:27:43.604Z,9.30
2022-08-10T09:31:18.844Z,8.40
2022-08-10T09:36:21.609Z,18.60
2022-08-10T09:38:14.577Z,7.50
2022-08-10T09:41:26.349Z,12.00
2022-08-10T09:44:34.153Z,6.10
2022-08-10T09:48:19.634Z,8.10
2022-08-10T09:51:48.042Z,9.00
2022-08-10T09:54:54.845Z,8.10
2022-08-10T09:58:35.978Z,7.20
2022-08-10T10:02:02.610Z,9.50
2022-08-10T10:05:25.534Z,12.20
2022-08-10T10:08:44.788Z,13.60
2022-08-10T10:12:18.914Z,6.90
2022-08-10T10:15:48.708Z,5.90
2022-08-10T10:19:28.929Z,9.60
2022-08-10T10:23:09.720Z,5.00
2022-08-10T10:26:49.112Z,8.40
2022-08-10T10:30:06.443Z,9.40
2022-08-10T10:33:21.061Z,8.70
2022-08-10T10:36:24.109Z,7.70
2022-08-10T10:39:26.463Z,6.60
2022-08-10T10:42:45.770Z,11.10
2022-08-10T10:46:29.280Z,8.20
2022-08-10T10:49:48.880Z,8.30
2022-08-10T10:53:10.163Z,7.90
2022-08-10T10:56:37.077Z,7.20
2022-08-10T11:00:06.184Z,8.50
2022-08-10T11:07:01.665Z,6.00
2022-08-10T11:10:33.578Z,10.50
2022-08-10T11:14:26.651Z,5.70
2022-08-10T11:17:34.690Z,7.80
2022-08-10T11:20:38.943Z,7.80
2022-08-10T11:24:48.664Z,6.30
2022-08-10T11:27:22.605Z,6.60
2022-08-10T11:30:48.231Z,7.40
2022-08-10T11:34:49.377Z,6.40
2022-08-10T11:38:32.159Z,5.00
2022-08-10T11:42:08.929Z,7.30
2022-08-10T11:45:02.745Z,4.90
2022-08-10T11:48:53.953Z,7.40
2022-08-10T11:51:49.117Z,4.70
2022-08-10T11:54:54.077Z,8.00
2022-08-10T11:58:00.227Z,5.60
2022-08-10T12:01:07.662Z,9.00
2022-08-10T12:04:12.101Z,5.10
2022-08-10T12:10:01.876Z,3.70
2022-08-10T12:10:40.764Z,5.30
2022-08-10T12:14:19.731Z,3.70
2022-08-10T12:17:22.888Z,7.40
2022-08-10T12:20:37.116Z,7.30
2022-08-10T12:23:46.034Z,7.50
2022-08-10T12:27:08.165Z,4.10
2022-08-10T12:30:16.557Z,5.70
2022-08-10T12:33:25.461Z,4.60
2022-08-10T12:36:29.348Z,6.30
2022-08-10T12:39:38.023Z,9.50
2022-08-10T12:43:03.887Z,9.20
2022-08-10T12:46:28.784Z,4.60
2022-08-10T12:49:34.912Z,5.20
2022-08-10T12:52:59.121Z,6.10
2022-08-10T12:56:08.639Z,4.10
2022-08-10T12:59:11.455Z,6.10
2022-08-10T13:02:23.642Z,5.60
2022-08-10T13:05:26.523Z,5.60
2022-08-10T13:08:51.177Z,6.80
2022-08-10T13:12:44.677Z,6.80
2022-08-10T13:15:50.010Z,4.90
2022-08-10T13:18:53.592Z,6.00
2022-08-10T13:21:56.644Z,8.80
2022-08-10T13:25:01.785Z,8.80
2022-08-10T13:28:36.563Z,4.50
2022-08-10T13:32:09.514Z,8.70
2022-08-10T13:34:53.861Z,8.00
2022-08-10T13:37:58.208Z,4.60
2022-08-10T13:41:01.028Z,5.30
2022-08-10T13:44:02.874Z,3.10
2022-08-10T13:47:05.973Z,6.00
2022-08-10T13:50:13.299Z,5.30
2022-08-10T13:53:18.253Z,6.30
2022-08-10T13:56:21.396Z,5.10
2022-08-10T14:00:34.568Z,5.50
2022-08-10T14:03:06.461Z,8.50
2022-08-10T14:06:13.017Z,4.60
2022-08-10T14:09:15.982Z,11.30
2022-08-10T14:12:18.121Z,6.10
2022-08-10T14:15:31.049Z,3.70
2022-08-10T14:18:36.853Z,6.10
2022-08-10T14:21:42.327Z,8.30
2022-08-10T14:24:44.118Z,6.30
2022-08-10T14:28:03.712Z,9.20
2022-08-10T14:31:21.868Z,11.80
2022-08-10T14:36:16.801Z,8.10
2022-08-10T14:37:55.486Z,7.50
2022-08-10T14:40:59.834Z,10.20
2022-08-10T14:44:07.053Z,11.00
2022-08-10T14:47:51.364Z,13.10
2022-08-10T14:50:33.555Z,8.10
2022-08-10T14:53:37.735Z,7.70
2022-08-10T14:56:39.639Z,6.30
2022-08-10T15:00:24.730Z,7.60
2022-08-10T15:03:11.097Z,6.70
2022-08-10T15:06:30.992Z,7.70
2022-08-10T15:10:02.183Z,5.20
2022-08-10T15:13:07.392Z,6.10
2022-08-10T15:16:31.728Z,7.40
2022-08-10T15:20:02.380Z,7.70
2022-08-10T15:23:06.784Z,8.70
2022-08-10T15:26:11.374Z,5.30
2022-08-10T15:29:23.303Z,9.50
2022-08-10T15:32:53.016Z,10.10
2022-08-10T15:36:14.012Z,8.10
2022-08-10T15:40:21.766Z,10.10
2022-08-10T15:42:42.076Z,9.10
2022-08-10T15:45:57.440Z,8.80
2022-08-10T15:49:02.216Z,12.00
2022-08-10T15:52:09.290Z,8.90
2022-08-10T15:55:43.844Z,7.70
2022-08-10T15:58:50.704Z,6.90
2022-08-10T16:02:13.373Z,6.40
2022-08-10T16:05:19.198Z,5.00
2022-08-10T16:08:56.208Z,7.80
2022-08-10T16:12:15.103Z,8.90
2022-08-10T16:15:18.708Z,6.50
2022-08-10T16:18:25.641Z,11.20
2022-08-10T16:21:28.689Z,10.50
2022-08-10T16:24:34.707Z,13.70
2022-08-10T16:27:38.377Z,9.70
2022-08-10T16:30:54.342Z,10.40
2022-08-10T16:34:00.606Z,5.10
2022-08-10T16:37:10.546Z,5.70
2022-08-10T16:40:13.595Z,11.80
2022-08-10T16:43:17.371Z,12.20
2022-08-10T16:46:26.526Z,10.20
2022-08-10T16:49:30.760Z,15.60
2022-08-10T16:52:34.374Z,9.20
2022-08-10T16:55:48.472Z,11.70
2022-08-10T16:58:55.563Z,7.00
2022-08-10T17:01:58.862Z,10.30
2022-08-10T17:05:01.027Z,10.70
2022-08-10T17:08:06.437Z,19.00
2022-08-10T17:11:08.322Z,13.50
2022-08-10T17:14:16.269Z,11.90
2022-08-10T17:17:22.303Z,17.10
2022-08-10T17:20:30.310Z,11.10
2022-08-10T17:23:35.905Z,17.60
2022-08-10T17:26:38.503Z,13.40
2022-08-10T17:29:57.519Z,13.80
2022-08-10T17:33:07.113Z,9.70
2022-08-10T17:36:08.950Z,14.70
2022-08-10T17:39:12.115Z,17.20
2022-08-10T17:42:20.853Z,9.80
2022-08-10T17:45:48.421Z,15.50
2022-08-10T17:48:52.447Z,20.10
2022-08-10T17:51:56.718Z,23.20
2022-08-10T17:55:04.600Z,23.60
2022-08-10T17:58:17.785Z,23.70
2022-08-10T18:01:42.075Z,23.70
2022-08-10T18:04:49.417Z,25.70
2022-08-10T18:07:53.710Z,27.60
2022-08-10T18:10:57.379Z,23.70
2022-08-10T18:14:06.055Z,23.30
2022-08-10T18:17:39.433Z,22.50
2022-08-10T18:20:42.806Z,20.20
2022-08-10T18:23:52.482Z,16.10
2022-08-10T18:26:55.722Z,16.30
2022-08-10T18:30:02.642Z,11.20
2022-08-10T18:33:09.537Z,16.20
2022-08-10T18:36:12.403Z,12.70
2022-08-10T18:39:15.344Z,15.80
2022-08-10T18:42:20.277Z,16.10
2022-08-10T18:45:26.001Z,15.80
2022-08-10T18:48:37.634Z,17.60
2022-08-10T18:51:46.870Z,14.50
2022-08-10T18:54:51.593Z,15.40
2022-08-10T18:57:56.498Z,17.30
2022-08-10T19:01:15.634Z,16.60
2022-08-10T19:04:52.086Z,15.20
2022-08-10T19:08:29.961Z,13.30
2022-08-10T19:11:48.671Z,17.20
2022-08-10T19:15:11.129Z,14.00
2022-08-10T19:18:30.940Z,20.00
2022-08-10T19:21:45.853Z,15.30
2022-08-10T19:25:00.190Z,13.30
2022-08-10T19:28:16.932Z,15.80
2022-08-10T19:31:41.847Z,17.90
2022-08-10T19:35:02.291Z,13.10
2022-08-10T19:38:16.822Z,14.50
2022-08-10T19:41:41.938Z,19.30
2022-08-10T19:44:55.801Z,16.10
2022-08-10T19:51:28.213Z,19.70
2022-08-10T19:54:59.939Z,14.90
2022-08-10T19:58:26.898Z,17.40
2022-08-10T20:01:55.371Z,17.00
2022-08-10T20:05:07.197Z,19.40
2022-08-10T20:08:28.147Z,20.60
2022-08-10T20:11:52.577Z,16.70
2022-08-10T20:15:10.317Z,22.50
2022-08-10T20:18:21.619Z,17.60
2022-08-10T20:24:41.664Z,16.00
2022-08-10T20:28:19.932Z,17.00
2022-08-10T20:31:29.627Z,17.40
2022-08-10T20:34:51.701Z,18.80
2022-08-10T20:38:11.203Z,18.20
2022-08-10T20:41:28.335Z,17.90
2022-08-10T20:45:04.493Z,20.80
2022-08-10T20:48:13.774Z,17.90
2022-08-10T20:51:21.244Z,18.90
2022-08-10T20:54:27.646Z,18.70
2022-08-10T20:58:03.878Z,18.80
2022-08-10T21:01:13.581Z,19.30
2022-08-10T21:04:41.506Z,27.50
2022-08-10T21:08:05.166Z,28.30
2022-08-10T21:11:14.577Z,23.50
2022-08-10T21:14:22.501Z,24.50
2022-08-10T21:17:58.445Z,20.00
2022-08-10T21:21:41.842Z,20.40
2022-08-10T21:24:53.409Z,23.90
2022-08-10T21:28:05.733Z,21.80
2022-08-10T21:31:10.448Z,23.10
2022-08-10T21:34:39.572Z,20.20
2022-08-10T21:38:08.260Z,21.40
2022-08-10T21:41:57.332Z,22.10
2022-08-10T21:45:59.339Z,21.60
2022-08-10T21:49:53.110Z,18.20
2022-08-10T21:53:22.636Z,23.20
2022-08-10T21:57:13.093Z,20.10
2022-08-10T22:04:13.732Z,13.90
2022-08-10T22:07:40.889Z,21.30
2022-08-10T22:11:10.921Z,17.60
2022-08-10T22:14:33.541Z,17.20
2022-08-10T22:18:00.768Z,17.30
2022-08-10T22:21:49.984Z,19.30
2022-08-10T22:25:23.063Z,17.70
2022-08-10T22:28:43.688Z,18.70
2022-08-10T22:32:09.485Z,16.80
2022-08-10T22:35:36.767Z,16.80
2022-08-10T22:39:13.870Z,17.40
2022-08-10T22:42:59.407Z,17.90
2022-08-10T22:46:42.825Z,18.30
2022-08-10T22:49:44.672Z,20.20
2022-08-10T22:53:02.055Z,21.80
2022-08-10T22:56:24.796Z,20.40
2022-08-10T22:59:29.192Z,19.70
2022-08-10T23:02:33.978Z,17.90
2022-08-10T23:05:39.475Z,22.40
2022-08-10T23:08:43.538Z,19.40
2022-08-10T23:11:47.515Z,21.30
2022-08-10T23:14:59.007Z,20.20
2022-08-10T23:18:23.161Z,19.50
2022-08-10T23:21:47.693Z,20.80
2022-08-10T23:25:01.270Z,20.80
2022-08-10T23:28:12.640Z,24.80
2022-08-10T23:32:01.465Z,17.80
2022-08-10T23:34:43.575Z,18.00
2022-08-10T23:37:45.852Z,21.20
2022-08-10T23:40:51.738Z,16.00
2022-08-10T23:44:04.123Z,20.00
2022-08-10T23:47:07.106Z,21.00
2022-08-10T23:50:11.412Z,17.50
2022-08-10T23:53:13.920Z,20.90
2022-08-10T23:56:18.644Z,18.30
2022-08-10T23:59:22.921Z,19.90
